Time;durP1;ratioP1;P1;durP2;ratioP2;P2;SDS_P1;SDS_P2;PMS_P1;PMS_P2;Temp;Humidity;BMP_temperature;BMP_pressure;BME280_temperature;BME280_humidity;BME280_pressure;Samples;Min_cycle;Max_cycle;Signal;HPM_P1;HPM_P2
2023/02/16 00:01:57;;;;;;;41.00;17.03;;;3.40;83.80;;;;;;5029175;28;20918;-74
2023/02/16 00:04:25;;;;;;;30.93;15.90;;;3.30;84.00;;;;;;5013034;28;20987;-75
2023/02/16 00:06:52;;;;;;;32.33;14.50;;;3.30;84.10;;;;;;5027853;28;20447;-74
2023/02/16 00:09:18;;;;;;;31.20;16.37;;;3.30;84.30;;;;;;5027686;28;20439;-72
2023/02/16 00:14:32;;;;;;;30.43;15.53;;;3.30;84.30;;;;;;5027922;28;20465;-73
2023/02/16 00:16:58;;;;;;;32.00;15.30;;;3.30;84.40;;;;;;5038401;28;20419;-76
2023/02/16 00:19:30;;;;;;;28.70;15.60;;;3.20;84.60;;;;;;5033605;28;20467;-73
2023/02/16 00:21:58;;;;;;;30.67;16.73;;;3.20;84.70;;;;;;5037047;28;20416;-74
2023/02/16 00:24:25;;;;;;;29.63;16.10;;;3.20;84.90;;;;;;5029152;28;20452;-75
2023/02/16 00:26:51;;;;;;;31.40;16.20;;;3.20;84.90;;;;;;5032117;28;20427;-75
2023/02/16 00:29:23;;;;;;;31.60;16.37;;;3.20;85.00;;;;;;5034033;28;20515;-74
2023/02/16 00:31:49;;;;;;;30.60;15.57;;;3.30;84.90;;;;;;5035150;28;20434;-74
2023/02/16 00:34:47;;;;;;;29.30;16.07;;;3.20;84.70;;;;;;5029439;28;20494;-74
2023/02/16 00:37:13;;;;;;;30.13;15.07;;;3.20;84.70;;;;;;4949962;28;20514;-75
2023/02/16 00:39:40;;;;;;;33.57;15.97;;;3.10;84.70;;;;;;4953741;28;21097;-75
2023/02/16 00:42:13;;;;;;;27.90;15.47;;;3.10;84.90;;;;;;4932212;28;20279;-76
2023/02/16 00:44:47;;;;;;;29.00;15.10;;;3.10;85.00;;;;;;4946321;28;20463;-74
2023/02/16 00:47:33;;;;;;;28.23;13.90;;;3.00;85.30;;;;;;4955828;28;21006;-74
2023/02/16 00:49:58;;;;;;;32.00;15.60;;;3.10;85.60;;;;;;4963880;28;20538;-74
2023/02/16 00:52:36;;;;;;;32.40;15.43;;;3.00;85.60;;;;;;4953999;28;20425;-75
2023/02/16 00:55:13;;;;;;;29.37;15.30;;;3.00;85.70;;;;;;4951199;28;20470;-75
2023/02/16 00:57:50;;;;;;;25.87;14.00;;;2.90;86.00;;;;;;4951501;28;20423;-76
2023/02/16 01:00:23;;;;;;;26.30;13.83;;;3.00;86.20;;;;;;4930722;28;20448;-74
2023/02/16 01:02:52;;;;;;;35.07;16.27;;;2.90;86.00;;;;;;4927398;29;20421;-74
2023/02/16 01:05:17;;;;;;;30.23;15.50;;;2.90;86.00;;;;;;4950431;28;20530;-74
2023/02/16 01:13:13;;;;;;;25.23;13.67;;;2.80;85.90;;;;;;5001375;28;20534;-75
2023/02/16 01:15:40;;;;;;;28.20;14.10;;;2.80;85.70;;;;;;5011334;28;20439;-74
2023/02/16 01:18:06;;;;;;;25.77;13.40;;;2.70;85.70;;;;;;5027586;28;20457;-74
2023/02/16 01:20:35;;;;;;;28.83;15.07;;;2.70;85.90;;;;;;5030749;28;20448;-74
2023/02/16 01:23:01;;;;;;;32.47;16.10;;;2.70;86.00;;;;;;5025085;28;20420;-74
2023/02/16 01:25:27;;;;;;;31.43;15.13;;;2.60;86.30;;;;;;5026591;28;20501;-74
2023/02/16 01:27:52;;;;;;;28.40;13.70;;;2.60;86.50;;;;;;5029697;28;20193;-74
2023/02/16 01:30:23;;;;;;;32.03;14.60;;;2.60;86.80;;;;;;5029217;28;20428;-73
2023/02/16 01:32:52;;;;;;;31.13;15.07;;;2.60;86.90;;;;;;5029129;28;20197;-74
2023/02/16 01:35:24;;;;;;;32.10;15.00;;;2.60;87.00;;;;;;5029150;28;20443;-74
2023/02/16 01:37:50;;;;;;;25.83;14.30;;;2.50;87.00;;;;;;5010190;28;21016;-74
2023/02/16 01:40:34;;;;;;;27.17;14.43;;;2.60;87.10;;;;;;5036271;28;20471;-74
2023/02/16 01:43:21;;;;;;;25.00;14.63;;;2.50;87.00;;;;;;5033930;28;20447;-75
2023/02/16 01:45:55;;;;;;;30.40;13.30;;;2.50;87.00;;;;;;5033007;28;20456;-74
2023/02/16 01:48:25;;;;;;;31.57;14.53;;;2.50;87.10;;;;;;5028924;28;20423;-74
2023/02/16 01:50:59;;;;;;;26.17;14.27;;;2.50;87.00;;;;;;5030877;28;20416;-74
2023/02/16 01:53:27;;;;;;;28.57;15.57;;;2.50;87.00;;;;;;5032844;28;20448;-74
2023/02/16 01:55:57;;;;;;;32.17;14.13;;;2.50;86.90;;;;;;5043328;28;20961;-75
2023/02/16 01:58:49;;;;;;;27.47;14.57;;;2.40;87.00;;;;;;5044824;28;20478;-73
2023/02/16 02:01:55;;;;;;;30.43;13.40;;;2.50;87.00;;;;;;5026749;28;20407;-74
2023/02/16 02:07:32;;;;;;;30.90;14.00;;;2.50;86.90;;;;;;5036275;28;21003;-74
2023/02/16 02:10:08;;;;;;;24.10;13.57;;;2.50;87.00;;;;;;5045425;28;20420;-74
2023/02/16 02:12:54;;;;;;;22.17;12.80;;;2.40;87.00;;;;;;5031369;28;20429;-73
2023/02/16 02:15:25;;;;;;;25.70;13.20;;;2.40;87.00;;;;;;5037557;28;20451;-74
2023/02/16 02:17:51;;;;;;;22.90;14.13;;;2.50;87.30;;;;;;5040133;28;20419;-74
2023/02/16 02:23:29;;;;;;;26.27;11.87;;;2.40;87.00;;;;;;5034799;28;20467;-74
2023/02/16 02:23:31;;;;;;;31.03;14.33;;;2.40;87.00;;;;;;5029437;28;20193;-74
2023/02/16 02:26:39;;;;;;;24.20;12.50;;;2.40;87.00;;;;;;5027831;28;20419;-73
2023/02/16 02:29:23;;;;;;;28.43;12.80;;;2.40;87.00;;;;;;5016037;28;20428;-74
2023/02/16 02:32:00;;;;;;;23.80;13.70;;;2.40;86.90;;;;;;5026268;28;20412;-74
2023/02/16 02:34:49;;;;;;;27.30;12.90;;;2.40;86.50;;;;;;5034328;28;20467;-75
2023/02/16 02:37:23;;;;;;;29.47;13.83;;;2.40;86.20;;;;;;5037779;28;20467;-74
2023/02/16 02:40:04;;;;;;;27.10;13.60;;;2.40;86.50;;;;;;5011556;28;20502;-74
2023/02/16 02:42:54;;;;;;;24.80;13.70;;;2.40;86.50;;;;;;5012424;28;20419;-74
2023/02/16 02:45:28;;;;;;;25.90;13.40;;;2.40;86.30;;;;;;5041717;28;20434;-74
2023/02/16 02:47:54;;;;;;;27.77;14.10;;;2.40;86.50;;;;;;5031600;28;20855;-74
2023/02/16 02:53:40;;;;;;;21.17;11.57;;;2.50;86.20;;;;;;5023274;28;20568;-75
2023/02/16 03:01:48;;;;;;;29.30;13.23;;;2.40;85.60;;;;;;5027328;28;20448;-76
2023/02/16 03:04:17;;;;;;;23.83;12.93;;;2.30;85.50;;;;;;5031130;28;20444;-75
2023/02/16 03:06:48;;;;;;;24.50;13.27;;;2.30;85.70;;;;;;5025288;28;20727;-75
2023/02/16 03:09:15;;;;;;;29.57;12.60;;;2.20;86.00;;;;;;5020078;28;20482;-76
2023/02/16 03:14:32;;;;;;;29.77;12.93;;;2.30;86.50;;;;;;5029352;28;20528;-75
2023/02/16 03:30:52;;;;;;;24.42;11.00;;;2.20;86.80;;;;;;5028592;28;20455;-76
2023/02/16 03:33:18;;;;;;;28.43;12.80;;;2.30;86.60;;;;;;5029992;28;20315;-75
2023/02/16 03:35:45;;;;;;;29.67;14.03;;;2.30;86.60;;;;;;5029986;28;20419;-75
2023/02/16 03:38:11;;;;;;;26.17;11.90;;;2.30;86.60;;;;;;5034719;28;20432;-75
2023/02/16 03:40:39;;;;;;;22.17;12.80;;;2.30;86.60;;;;;;5040394;28;20497;-76
2023/02/16 03:43:06;;;;;;;26.00;11.83;;;2.30;86.50;;;;;;5042554;28;20177;-76
2023/02/16 03:45:35;;;;;;;25.63;12.60;;;2.30;86.50;;;;;;5034430;28;20430;-76
2023/02/16 03:48:00;;;;;;;17.03;10.40;;;2.30;86.60;;;;;;5033394;28;20438;-76
2023/02/16 03:50:26;;;;;;;23.70;12.20;;;2.30;86.50;;;;;;5033831;28;20419;-76
2023/02/16 03:53:05;;;;;;;19.35;11.07;;;2.30;86.50;;;;;;5014676;28;20420;-76
2023/02/16 03:55:52;;;;;;;25.70;10.50;;;2.30;86.50;;;;;;5033094;28;20185;-77
2023/02/16 03:58:22;;;;;;;23.92;11.85;;;2.30;86.50;;;;;;5030116;28;20291;-75
2023/02/16 04:00:48;;;;;;;29.13;13.27;;;2.40;86.50;;;;;;5024756;28;20170;-75
2023/02/16 04:03:15;;;;;;;21.60;11.77;;;2.40;86.00;;;;;;5026314;28;20436;-75
2023/02/16 04:05:41;;;;;;;23.93;12.37;;;2.40;85.90;;;;;;5023597;28;20839;-77
2023/02/16 04:08:07;;;;;;;23.50;12.03;;;2.40;85.70;;;;;;5022285;28;20770;-74
2023/02/16 04:10:33;;;;;;;24.63;11.27;;;2.40;85.60;;;;;;5034190;28;20466;-75
2023/02/16 04:12:59;;;;;;;21.43;11.50;;;2.30;85.60;;;;;;5015599;28;21008;-74
2023/02/16 04:15:27;;;;;;;23.20;11.60;;;2.30;85.70;;;;;;5034584;28;20428;-75
2023/02/16 04:17:54;;;;;;;22.20;11.73;;;2.30;85.70;;;;;;5013040;28;20409;-76
2023/02/16 04:20:22;;;;;;;21.00;11.87;;;2.20;85.70;;;;;;5032843;28;20862;-75
2023/02/16 04:22:48;;;;;;;23.73;12.00;;;2.20;85.70;;;;;;5036119;28;20427;-76
2023/02/16 04:25:15;;;;;;;21.73;9.67;;;2.20;85.70;;;;;;5024377;28;20462;-75
2023/02/16 04:27:41;;;;;;;27.80;12.53;;;2.20;85.70;;;;;;5032181;28;20416;-76
2023/02/16 04:30:13;;;;;;;17.60;11.50;;;2.20;86.00;;;;;;5033078;28;20431;-75
2023/02/16 04:32:39;;;;;;;21.80;11.30;;;2.20;86.00;;;;;;5032030;28;20946;-76
2023/02/16 04:35:05;;;;;;;25.80;11.90;;;2.10;86.00;;;;;;5028309;28;20452;-74
2023/02/16 04:37:31;;;;;;;22.77;11.80;;;2.10;86.30;;;;;;5028235;28;20204;-76
2023/02/16 04:39:56;;;;;;;19.60;10.83;;;2.10;86.30;;;;;;5019187;28;20981;-76
2023/02/16 04:42:22;;;;;;;24.03;11.20;;;2.10;86.50;;;;;;5020760;28;20178;-75
2023/02/16 04:44:48;;;;;;;20.23;10.60;;;2.00;86.50;;;;;;5027312;28;20209;-76
2023/02/16 04:47:14;;;;;;;22.23;10.43;;;2.00;86.60;;;;;;5038898;28;20235;-76
2023/02/16 04:49:39;;;;;;;23.00;10.63;;;2.00;86.80;;;;;;5037493;28;20188;-76
2023/02/16 04:52:05;;;;;;;20.63;11.93;;;2.00;86.90;;;;;;5044039;28;20503;-75
2023/02/16 04:54:31;;;;;;;18.47;9.97;;;1.90;87.00;;;;;;5024953;28;20905;-76
2023/02/16 04:56:57;;;;;;;25.00;13.43;;;2.00;87.30;;;;;;5033044;28;20186;-75
2023/02/16 04:59:23;;;;;;;22.63;10.90;;;2.00;87.40;;;;;;5034104;28;20978;-77
2023/02/16 05:01:48;;;;;;;22.97;12.23;;;2.00;87.40;;;;;;5039474;28;20567;-76
2023/02/16 05:04:15;;;;;;;21.50;11.27;;;2.00;87.30;;;;;;5036163;28;20208;-77
2023/02/16 05:06:41;;;;;;;30.10;12.20;;;1.90;87.30;;;;;;5039271;28;20174;-76
2023/02/16 05:09:07;;;;;;;23.63;10.40;;;1.90;87.30;;;;;;5026205;28;20455;-76
2023/02/16 05:14:41;;;;;;;21.07;12.07;;;1.90;87.40;;;;;;5026236;28;20851;-77
2023/02/16 05:17:07;;;;;;;21.63;11.50;;;1.80;87.60;;;;;;5037096;28;20451;-75
2023/02/16 05:19:33;;;;;;;22.23;10.88;;;1.80;87.80;;;;;;5033717;28;20479;-75
2023/02/16 05:21:59;;;;;;;32.43;14.50;;;1.80;88.10;;;;;;5013490;28;20648;-76
2023/02/16 05:24:24;;;;;;;27.40;12.67;;;1.80;88.30;;;;;;5023481;28;20209;-76
2023/02/16 05:26:50;;;;;;;21.07;11.37;;;1.80;88.40;;;;;;5036049;28;20178;-76
2023/02/16 05:29:15;;;;;;;29.33;12.30;;;1.80;88.60;;;;;;5026985;28;20189;-75
2023/02/16 05:31:41;;;;;;;23.80;12.97;;;1.80;88.60;;;;;;5024071;28;20195;-76
2023/02/16 05:34:06;;;;;;;22.43;12.57;;;1.80;88.70;;;;;;5026899;28;20212;-77
2023/02/16 05:36:32;;;;;;;27.43;13.10;;;1.80;88.70;;;;;;5030974;28;20203;-76
2023/02/16 05:38:58;;;;;;;26.47;12.70;;;1.80;88.60;;;;;;5037083;28;20201;-77
2023/02/16 05:41:23;;;;;;;24.77;12.37;;;1.70;88.60;;;;;;5042849;28;20211;-76
2023/02/16 05:43:50;;;;;;;20.30;12.00;;;1.70;88.40;;;;;;5034188;28;20946;-74
2023/02/16 05:46:16;;;;;;;26.40;12.50;;;1.70;88.40;;;;;;5039759;28;20600;-76
2023/02/16 05:48:41;;;;;;;25.80;13.03;;;1.70;88.40;;;;;;5029760;28;20409;-75
2023/02/16 05:51:07;;;;;;;22.90;11.80;;;1.80;88.40;;;;;;5035361;28;20212;-76
2023/02/16 05:53:32;;;;;;;21.70;11.97;;;1.80;88.10;;;;;;5034399;28;20570;-76
2023/02/16 05:55:58;;;;;;;24.27;11.20;;;1.70;88.10;;;;;;5037907;28;20188;-77
2023/02/16 05:58:23;;;;;;;24.33;11.63;;;1.70;88.10;;;;;;5030239;28;20317;-76
2023/02/16 06:00:49;;;;;;;23.80;13.00;;;1.70;88.30;;;;;;5031543;28;20216;-76
2023/02/16 06:03:14;;;;;;;23.27;11.47;;;1.70;88.30;;;;;;5031577;28;20209;-77
2023/02/16 06:05:40;;;;;;;24.03;12.40;;;1.70;88.40;;;;;;5009411;28;20181;-75
2023/02/16 06:08:06;;;;;;;29.07;12.70;;;1.70;88.40;;;;;;5034272;28;20200;-74
2023/02/16 06:10:32;;;;;;;28.40;12.00;;;1.60;88.60;;;;;;5033937;28;20178;-77
2023/02/16 06:12:58;;;;;;;27.00;12.60;;;1.60;88.70;;;;;;5016270;28;20431;-76
2023/02/16 06:15:23;;;;;;;29.80;11.90;;;1.60;88.70;;;;;;5012530;28;20215;-75
2023/02/16 06:17:49;;;;;;;22.70;11.40;;;1.60;88.70;;;;;;5031580;28;20173;-78
2023/02/16 06:20:14;;;;;;;21.87;12.70;;;1.70;88.90;;;;;;5033786;28;20992;-75
2023/02/16 06:22:40;;;;;;;26.63;11.77;;;1.70;88.90;;;;;;5024707;28;20550;-76
2023/02/16 06:25:06;;;;;;;21.63;11.40;;;1.70;88.90;;;;;;5028901;28;20197;-75
2023/02/16 06:27:31;;;;;;;22.90;11.83;;;1.80;88.70;;;;;;5031995;28;20177;-75
2023/02/16 06:29:57;;;;;;;24.10;11.90;;;1.70;88.40;;;;;;5027847;28;20415;-76
2023/02/16 06:32:22;;;;;;;29.10;13.20;;;1.70;88.40;;;;;;5041571;28;20242;-77
2023/02/16 06:34:48;;;;;;;27.33;13.73;;;1.70;88.40;;;;;;5024881;28;20209;-76
2023/02/16 06:37:14;;;;;;;21.83;11.13;;;1.60;88.40;;;;;;5030656;28;20566;-76
2023/02/16 06:39:39;;;;;;;20.73;11.03;;;1.60;88.60;;;;;;5040981;28;20197;-76
2023/02/16 06:42:05;;;;;;;25.80;11.53;;;1.70;88.70;;;;;;5028871;28;20718;-76
2023/02/16 06:44:30;;;;;;;25.07;11.07;;;1.70;88.90;;;;;;5021198;28;20226;-76
2023/02/16 06:46:56;;;;;;;20.60;11.13;;;1.80;88.70;;;;;;5029744;28;20261;-76
2023/02/16 06:49:21;;;;;;;22.57;11.40;;;1.80;88.60;;;;;;5012080;28;20217;-76
2023/02/16 06:51:48;;;;;;;28.63;12.40;;;1.80;88.60;;;;;;5027792;28;20281;-76
2023/02/16 06:54:14;;;;;;;21.60;11.80;;;1.90;88.30;;;;;;5027974;28;20231;-75
2023/02/16 06:56:40;;;;;;;32.43;12.50;;;1.90;88.10;;;;;;5027300;28;20432;-76
2023/02/16 06:59:06;;;;;;;25.43;11.23;;;1.90;88.10;;;;;;5033113;28;20839;-75
2023/02/16 07:01:32;;;;;;;28.90;12.37;;;1.90;88.30;;;;;;5035410;28;20319;-75
2023/02/16 07:03:57;;;;;;;21.80;11.20;;;1.90;88.30;;;;;;5031493;28;20251;-75
2023/02/16 07:06:26;;;;;;;28.63;12.50;;;1.90;88.30;;;;;;5033555;28;20239;-75
2023/02/16 07:08:52;;;;;;;25.07;11.90;;;1.90;88.10;;;;;;5032737;28;20189;-75
2023/02/16 07:11:18;;;;;;;24.83;13.20;;;1.90;88.30;;;;;;5030996;28;21045;-74
2023/02/16 07:13:44;;;;;;;20.93;12.10;;;1.90;88.60;;;;;;5026162;28;20555;-76
2023/02/16 07:16:11;;;;;;;24.17;13.07;;;2.00;88.60;;;;;;5031801;28;20422;-75
2023/02/16 07:18:37;;;;;;;24.53;11.87;;;2.00;88.60;;;;;;5029989;28;20551;-75
2023/02/16 07:21:02;;;;;;;24.00;12.77;;;2.00;88.30;;;;;;5030158;28;20442;-75
2023/02/16 07:23:28;;;;;;;23.30;12.30;;;2.10;88.30;;;;;;5027421;28;20485;-75
2023/02/16 07:25:54;;;;;;;28.60;12.90;;;2.10;88.10;;;;;;5012447;28;20272;-75
2023/02/16 07:28:19;;;;;;;26.30;13.17;;;2.10;88.30;;;;;;5007635;28;20188;-75
2023/02/16 07:30:45;;;;;;;28.13;14.30;;;2.10;88.30;;;;;;5031400;28;20236;-76
2023/02/16 07:33:10;;;;;;;29.33;13.37;;;2.20;88.10;;;;;;5027795;28;20185;-76
2023/02/16 07:35:37;;;;;;;26.27;13.40;;;2.20;88.30;;;;;;5027200;28;20235;-75
2023/02/16 07:38:04;;;;;;;32.97;14.50;;;2.20;88.30;;;;;;5014962;28;20559;-75
2023/02/16 07:40:30;;;;;;;30.57;15.40;;;2.20;88.30;;;;;;5034122;28;20954;-75
2023/02/16 07:43:00;;;;;;;28.60;13.23;;;2.30;88.30;;;;;;5036591;28;20502;-75
2023/02/16 07:45:26;;;;;;;27.90;14.47;;;2.40;88.30;;;;;;5013654;28;20486;-77
2023/02/16 07:47:52;;;;;;;34.23;17.60;;;2.40;88.30;;;;;;5030796;28;20416;-76
2023/02/16 07:50:18;;;;;;;49.77;17.17;;;2.50;88.00;;;;;;5032356;28;20443;-78
2023/02/16 07:52:43;;;;;;;37.93;14.73;;;2.60;87.70;;;;;;5032859;28;20268;-76
2023/02/16 07:55:10;;;;;;;33.70;16.03;;;2.60;87.60;;;;;;5030267;28;20209;-75
2023/02/16 07:57:37;;;;;;;37.57;16.83;;;2.70;87.60;;;;;;5042101;28;20186;-77
2023/02/16 08:00:06;;;;;;;28.40;14.47;;;2.70;87.40;;;;;;5041818;28;20523;-76
2023/02/16 08:02:32;;;;;;;33.13;15.70;;;2.80;87.30;;;;;;5033563;28;20428;-77
2023/02/16 08:04:58;;;;;;;29.07;14.20;;;2.90;87.30;;;;;;5049394;28;20462;-79
2023/02/16 08:07:24;;;;;;;30.00;15.93;;;2.90;87.00;;;;;;5051476;28;20420;-80
2023/02/16 08:09:50;;;;;;;32.70;14.53;;;3.00;86.80;;;;;;5036689;28;20434;-80
2023/02/16 08:12:16;;;;;;;34.13;15.40;;;3.10;86.60;;;;;;5044198;28;20505;-77
2023/02/16 08:14:42;;;;;;;30.87;16.27;;;3.20;86.30;;;;;;5029903;28;20711;-78
2023/02/16 08:17:08;;;;;;;30.77;15.20;;;3.20;86.20;;;;;;5030714;28;20450;-77
2023/02/16 08:19:35;;;;;;;30.00;15.30;;;3.20;86.00;;;;;;5035995;28;20554;-77
2023/02/16 08:22:03;;;;;;;30.20;15.67;;;3.30;85.90;;;;;;5019739;28;20915;-78
2023/02/16 08:24:28;;;;;;;31.70;17.73;;;3.30;85.70;;;;;;5039450;28;20447;-78
2023/02/16 08:26:54;;;;;;;31.97;16.47;;;3.30;85.90;;;;;;5028563;28;20815;-80
2023/02/16 08:29:21;;;;;;;34.13;17.00;;;3.30;85.70;;;;;;5036902;28;20656;-79
2023/02/16 08:31:47;;;;;;;36.63;18.17;;;3.40;85.60;;;;;;5036626;28;20423;-79
2023/02/16 08:34:16;;;;;;;38.83;18.50;;;3.40;85.50;;;;;;5028907;28;20455;-79
2023/02/16 08:36:46;;;;;;;35.27;18.07;;;3.40;85.30;;;;;;5022009;28;20440;-78
2023/02/16 08:39:16;;;;;;;40.23;18.30;;;3.40;85.20;;;;;;5038794;28;20925;-77
2023/02/16 08:41:43;;;;;;;42.23;18.67;;;3.50;85.20;;;;;;5037762;28;20447;-77
2023/02/16 08:44:10;;;;;;;36.80;17.97;;;3.50;85.30;;;;;;5033483;28;21040;-78
2023/02/16 08:46:38;;;;;;;39.87;18.23;;;3.60;85.30;;;;;;5018167;28;20420;-78
2023/02/16 08:49:05;;;;;;;36.43;19.10;;;3.80;85.00;;;;;;5034278;28;20431;-78
2023/02/16 08:51:35;;;;;;;30.67;17.20;;;3.90;84.40;;;;;;5040857;28;20427;-78
2023/02/16 08:54:02;;;;;;;32.07;17.50;;;3.90;84.30;;;;;;5032596;28;20448;-78
2023/02/16 08:56:29;;;;;;;36.10;17.57;;;4.00;84.10;;;;;;5021397;28;20430;-78
2023/02/16 08:58:56;;;;;;;33.77;18.10;;;4.10;84.00;;;;;;5038644;28;20470;-79
2023/02/16 09:01:22;;;;;;;38.03;16.60;;;4.20;83.70;;;;;;5031036;28;20533;-79
2023/02/16 09:03:48;;;;;;;31.50;16.90;;;4.30;83.40;;;;;;5031780;28;20448;-74
2023/02/16 09:06:16;;;;;;;33.57;17.37;;;4.40;83.00;;;;;;5037176;28;20412;-74
2023/02/16 09:08:43;;;;;;;32.93;19.10;;;4.50;83.00;;;;;;5028937;28;20432;-75
2023/02/16 09:11:12;;;;;;;38.13;19.10;;;4.60;83.00;;;;;;5028093;28;20510;-75
2023/02/16 09:13:39;;;;;;;33.00;18.40;;;4.70;82.50;;;;;;5009875;28;20662;-75
2023/02/16 09:16:08;;;;;;;36.30;18.20;;;4.80;81.90;;;;;;5037653;28;20833;-75
2023/02/16 09:18:35;;;;;;;31.83;17.03;;;5.00;81.70;;;;;;5028772;28;20460;-75
2023/02/16 09:21:14;;;;;;;40.10;19.07;;;5.10;81.10;;;;;;5031418;28;20422;-76
2023/02/16 09:23:42;;;;;;;39.13;19.33;;;5.20;80.80;;;;;;5033052;28;20479;-74
2023/02/16 09:26:09;;;;;;;33.13;18.40;;;5.30;80.80;;;;;;5045126;28;20439;-76
2023/02/16 09:28:39;;;;;;;32.23;18.23;;;5.40;80.50;;;;;;5032857;28;20452;-74
2023/02/16 09:31:34;;;;;;;36.10;19.10;;;5.60;79.90;;;;;;5031811;28;20420;-76
2023/02/16 09:34:03;;;;;;;41.30;21.00;;;5.80;79.50;;;;;;5025654;28;20975;-74
2023/02/16 09:36:29;;;;;;;36.83;18.90;;;6.00;78.10;;;;;;5032277;28;20432;-74
2023/02/16 09:38:55;;;;;;;36.37;18.73;;;6.20;78.10;;;;;;5014594;28;20487;-74
2023/02/16 09:41:39;;;;;;;39.80;18.93;;;6.30;78.00;;;;;;5032849;28;20420;-74
2023/02/16 09:44:11;;;;;;;33.10;19.40;;;6.50;77.60;;;;;;5017081;28;20516;-76
2023/02/16 09:46:38;;;;;;;36.97;18.60;;;6.70;77.30;;;;;;5040021;28;20411;-75
2023/02/16 09:49:04;;;;;;;41.60;19.60;;;6.90;76.80;;;;;;5044352;28;20426;-74
2023/02/16 09:51:39;;;;;;;32.33;19.23;;;7.10;75.70;;;;;;5043737;28;20527;-75
2023/02/16 09:54:14;;;;;;;32.80;16.70;;;7.20;75.20;;;;;;5043640;28;20435;-76
2023/02/16 09:56:48;;;;;;;35.43;17.97;;;7.40;74.30;;;;;;5044564;28;20452;-75
2023/02/16 09:59:25;;;;;;;32.40;17.83;;;7.70;73.00;;;;;;5040758;28;20524;-76
2023/02/16 10:02:10;;;;;;;40.43;19.37;;;7.90;72.10;;;;;;5014380;28;20416;-76
2023/02/16 10:05:11;;;;;;;32.80;17.53;;;8.00;71.60;;;;;;5029929;28;20443;-74
2023/02/16 10:08:21;;;;;;;44.07;18.20;;;8.20;71.30;;;;;;5025526;28;21046;-75
2023/02/16 10:10:55;;;;;;;34.77;18.67;;;8.40;71.00;;;;;;4982704;28;20519;-75
2023/02/16 10:13:30;;;;;;;28.83;16.10;;;8.60;70.20;;;;;;5032123;28;20498;-76
2023/02/16 10:15:58;;;;;;;36.20;15.87;;;8.70;69.90;;;;;;5034474;28;20402;-74
2023/02/16 10:18:28;;;;;;;33.43;17.13;;;8.90;69.70;;;;;;5044260;28;20416;-76
2023/02/16 10:20:57;;;;;;;38.43;16.20;;;9.00;69.50;;;;;;5026265;28;21009;-75
2023/02/16 10:23:28;;;;;;;38.60;18.03;;;9.10;69.20;;;;;;5011191;28;20444;-77
2023/02/16 10:25:57;;;;;;;21.87;8.20;;;9.20;69.20;;;;;;5039031;28;20415;-75
2023/02/16 10:28:45;;;;;;;20.23;8.20;;;9.40;67.30;;;;;;5033700;28;20416;-75
2023/02/16 10:31:18;;;;;;;26.30;9.43;;;9.70;64.40;;;;;;5034378;28;20942;-75
2023/02/16 10:34:00;;;;;;;14.40;8.07;;;10.10;62.90;;;;;;5029323;28;20470;-76
2023/02/16 10:36:50;;;;;;;15.00;7.53;;;10.30;61.70;;;;;;5042664;28;20443;-76
2023/02/16 10:39:34;;;;;;;10.43;6.90;;;10.50;59.60;;;;;;5043740;28;20464;-76
2023/02/16 10:42:25;;;;;;;15.03;6.80;;;10.80;58.80;;;;;;5039088;28;20843;-77
2023/02/16 10:44:58;;;;;;;14.53;7.43;;;11.10;57.40;;;;;;5028341;28;20512;-76
2023/02/16 10:47:26;;;;;;;13.80;6.73;;;11.60;56.20;;;;;;5042058;28;20423;-75
2023/02/16 10:49:53;;;;;;;14.27;6.67;;;12.20;54.80;;;;;;5040629;28;20455;-75
2023/02/16 10:52:19;;;;;;;20.80;8.17;;;12.60;53.20;;;;;;5049930;28;20521;-74
2023/02/16 10:54:45;;;;;;;18.87;7.50;;;13.00;52.20;;;;;;5061714;28;20445;-75
2023/02/16 10:57:38;;;;;;;17.73;7.83;;;13.50;51.60;;;;;;5059684;28;20495;-76
2023/02/16 11:00:11;;;;;;;14.00;7.40;;;13.90;49.90;;;;;;5040560;28;20644;-76
2023/02/16 11:02:41;;;;;;;11.20;7.50;;;14.30;49.10;;;;;;5035051;28;20409;-75
2023/02/16 11:05:25;;;;;;;16.50;8.00;;;14.70;47.90;;;;;;5020284;28;20464;-75
2023/02/16 11:08:02;;;;;;;13.03;7.63;;;15.10;46.70;;;;;;5030817;28;20770;-75
2023/02/16 11:10:35;;;;;;;12.83;7.00;;;15.40;45.40;;;;;;5007979;28;20443;-75
2023/02/16 11:13:01;;;;;;;11.07;6.83;;;15.60;45.00;;;;;;5040126;28;20424;-75
2023/02/16 11:15:28;;;;;;;15.10;7.07;;;15.80;44.30;;;;;;5017253;28;20431;-75
2023/02/16 11:17:57;;;;;;;12.40;6.67;;;15.90;44.20;;;;;;5032468;28;20181;-74
2023/02/16 11:20:30;;;;;;;10.93;6.40;;;15.90;43.20;;;;;;5034663;28;20456;-75
2023/02/16 11:23:20;;;;;;;15.00;6.67;;;15.90;44.30;;;;;;5021671;28;20787;-74
2023/02/16 11:26:02;;;;;;;11.50;7.63;;;16.10;44.10;;;;;;5036254;28;20465;-75
2023/02/16 11:28:30;;;;;;;10.20;6.23;;;16.50;43.10;;;;;;5037073;28;20408;-76
2023/02/16 11:31:08;;;;;;;17.43;6.67;;;16.70;42.30;;;;;;5015969;28;20922;-76
2023/02/16 11:33:36;;;;;;;13.80;6.80;;;16.80;42.80;;;;;;5024417;28;20464;-77
2023/02/16 11:36:04;;;;;;;14.20;7.27;;;17.20;42.20;;;;;;5020822;28;20423;-75
2023/02/16 11:38:35;;;;;;;10.37;5.73;;;17.40;40.80;;;;;;5038439;28;20429;-76
2023/02/16 11:41:05;;;;;;;12.20;6.87;;;17.50;40.00;;;;;;5036701;28;20419;-76
2023/02/16 11:43:37;;;;;;;19.80;11.33;;;17.20;40.30;;;;;;5024426;28;20452;-75
2023/02/16 11:46:13;;;;;;;21.70;9.90;;;17.00;43.70;;;;;;5020950;28;20451;-76
2023/02/16 11:48:39;;;;;;;22.10;11.27;;;16.80;43.10;;;;;;5034942;28;20439;-75
2023/02/16 11:51:09;;;;;;;26.77;12.10;;;16.70;43.70;;;;;;5038579;28;20958;-76
2023/02/16 11:53:41;;;;;;;28.50;14.80;;;16.00;45.40;;;;;;5034289;28;20212;-75
2023/02/16 11:56:26;;;;;;;22.60;13.00;;;15.50;47.40;;;;;;5021848;28;20474;-77
2023/02/16 11:59:06;;;;;;;19.40;11.77;;;15.30;48.10;;;;;;5031581;28;20451;-75
2023/02/16 12:01:52;;;;;;;23.80;11.90;;;15.20;48.70;;;;;;5021208;28;20416;-76
2023/02/16 12:04:56;;;;;;;28.00;11.80;;;15.50;47.40;;;;;;5014518;28;20455;-75
2023/02/16 12:07:31;;;;;;;17.80;11.73;;;15.90;47.00;;;;;;5054624;28;20461;-74
2023/02/16 12:10:20;;;;;;;21.80;11.37;;;16.20;46.20;;;;;;5054736;28;20417;-75
2023/02/16 12:13:09;;;;;;;27.77;10.83;;;16.30;45.40;;;;;;5043763;28;20440;-74
2023/02/16 12:15:45;;;;;;;16.90;10.30;;;16.40;45.50;;;;;;5039840;28;20426;-76
2023/02/16 12:18:42;;;;;;;21.63;11.83;;;16.40;45.40;;;;;;5006876;28;20435;-75
2023/02/16 12:21:30;;;;;;;19.07;11.00;;;16.40;45.40;;;;;;5033963;28;20424;-74
2023/02/16 12:24:01;;;;;;;21.70;10.53;;;16.20;44.70;;;;;;5038502;28;20448;-74
2023/02/16 12:26:35;;;;;;;18.17;10.77;;;16.20;44.70;;;;;;5039678;28;20407;-76
2023/02/16 12:29:25;;;;;;;19.77;10.60;;;16.10;44.70;;;;;;5053732;28;20441;-74
2023/02/16 12:32:03;;;;;;;21.70;10.00;;;16.20;45.00;;;;;;5027686;28;20777;-73
2023/02/16 12:34:43;;;;;;;21.17;9.77;;;16.30;44.20;;;;;;5056692;28;20443;-74
2023/02/16 12:37:23;;;;;;;18.90;9.40;;;16.40;44.20;;;;;;5048317;28;20435;-75
2023/02/16 12:39:58;;;;;;;16.33;8.53;;;16.70;44.10;;;;;;5048041;28;20983;-74
2023/02/16 12:42:54;;;;;;;21.93;9.27;;;16.90;42.20;;;;;;5039537;28;20419;-74
2023/02/16 12:45:30;;;;;;;14.90;8.43;;;17.10;42.40;;;;;;5015460;28;20456;-75
2023/02/16 12:48:03;;;;;;;22.20;9.77;;;17.40;42.30;;;;;;5043313;28;20419;-75
2023/02/16 12:50:32;;;;;;;17.90;10.03;;;17.70;41.40;;;;;;5016739;28;20514;-76
2023/02/16 12:53:12;;;;;;;18.73;10.07;;;17.50;40.80;;;;;;5017334;28;20420;-76
2023/02/16 12:55:43;;;;;;;17.20;9.47;;;16.70;42.40;;;;;;5027750;28;20411;-76
2023/02/16 12:58:15;;;;;;;17.57;8.70;;;16.60;43.40;;;;;;5034584;28;20424;-75
2023/02/16 13:00:40;;;;;;;17.00;9.23;;;16.60;43.40;;;;;;5042355;28;20496;-76
2023/02/16 13:03:23;;;;;;;16.77;7.97;;;16.70;43.90;;;;;;5030294;28;20907;-76
2023/02/16 13:06:10;;;;;;;14.63;8.93;;;16.80;42.70;;;;;;5011968;28;20550;-75
2023/02/16 13:08:47;;;;;;;15.93;8.13;;;16.50;43.00;;;;;;5033802;28;20415;-77
2023/02/16 13:11:29;;;;;;;16.10;9.27;;;16.20;43.90;;;;;;5047416;28;20456;-75
2023/02/16 13:14:01;;;;;;;14.10;9.47;;;16.10;44.10;;;;;;5042627;28;20436;-74
2023/02/16 13:16:52;;;;;;;17.00;8.73;;;16.00;44.60;;;;;;5029135;28;20420;-74
2023/02/16 13:19:18;;;;;;;17.10;9.03;;;16.10;44.60;;;;;;5034748;28;20544;-74
2023/02/16 13:22:21;;;;;;;17.77;9.13;;;16.10;44.50;;;;;;5026885;28;20443;-75
2023/02/16 13:24:49;;;;;;;14.77;9.20;;;16.30;44.30;;;;;;5032715;28;20197;-76
2023/02/16 13:27:40;;;;;;;18.40;8.67;;;16.20;44.30;;;;;;5038180;28;20480;-74
2023/02/16 13:30:41;;;;;;;20.00;7.87;;;16.00;44.60;;;;;;5025160;28;20415;-76
2023/02/16 13:33:08;;;;;;;13.77;8.13;;;15.90;45.10;;;;;;5011718;28;20793;-74
2023/02/16 13:36:02;;;;;;;17.27;8.70;;;15.90;45.50;;;;;;5037673;28;20482;-75
2023/02/16 13:38:49;;;;;;;15.27;8.77;;;16.00;45.70;;;;;;5036131;28;20422;-74